createdAt,value
2023-02-05T00:01:05.958Z,64.65
2023-02-05T00:05:12.549Z,63.87
2023-02-05T00:09:15.945Z,63.91
2023-02-05T00:13:20.404Z,65.00
2023-02-05T00:17:23.799Z,64.41
2023-02-05T00:21:26.821Z,64.42
2023-02-05T00:25:30.116Z,64.74
2023-02-05T00:29:34.340Z,64.89
2023-02-05T00:33:37.748Z,64.44
2023-02-05T00:37:40.969Z,64.45
2023-02-05T00:41:44.015Z,64.07
2023-02-05T00:45:49.227Z,64.42
2023-02-05T00:49:52.089Z,65.43
2023-02-05T00:53:55.611Z,65.27
2023-02-05T00:57:58.923Z,65.53
2023-02-05T01:02:03.771Z,65.33
2023-02-05T01:06:06.757Z,65.92
2023-02-05T01:10:11.100Z,66.35
2023-02-05T01:18:24.021Z,66.17
2023-02-05T01:22:27.406Z,66.36
2023-02-05T01:26:30.240Z,66.40
2023-02-05T01:30:33.722Z,66.82
2023-02-05T01:34:38.748Z,66.82
2023-02-05T01:38:42.127Z,66.15
2023-02-05T01:42:45.531Z,65.94
2023-02-05T01:46:50.036Z,65.75
2023-02-05T01:50:58.589Z,64.88
2023-02-05T01:55:02.824Z,64.94
2023-02-05T01:59:12.067Z,65.12
2023-02-05T02:03:16.524Z,65.06
2023-02-05T02:07:24.438Z,65.31
2023-02-05T02:11:30.013Z,65.17
2023-02-05T02:15:33.752Z,65.27
2023-02-05T02:19:44.656Z,64.90
2023-02-05T02:24:03.788Z,65.02
2023-02-05T02:28:13.550Z,65.03
2023-02-05T02:32:23.088Z,65.60
2023-02-05T02:36:31.789Z,64.69
2023-02-05T02:40:41.721Z,64.95
2023-02-05T02:44:50.574Z,65.30
2023-02-05T02:48:58.217Z,65.97
2023-02-05T02:53:05.028Z,66.15
2023-02-05T02:57:11.062Z,66.12
2023-02-05T03:01:18.751Z,65.97
2023-02-05T03:05:25.002Z,67.11
2023-02-05T03:09:34.008Z,66.63
2023-02-05T03:13:37.335Z,66.76
2023-02-05T03:17:43.994Z,66.52
2023-02-05T03:21:52.250Z,66.95
2023-02-05T03:25:55.356Z,65.50
2023-02-05T03:29:58.870Z,65.47
2023-02-05T03:34:14.181Z,65.60
2023-02-05T03:38:40.854Z,65.66
2023-02-05T03:43:06.740Z,65.76
2023-02-05T03:47:17.889Z,65.92
2023-02-05T03:51:30.396Z,66.04
2023-02-05T03:55:37.380Z,66.87
2023-02-05T03:59:40.996Z,65.75
2023-02-05T04:03:44.017Z,65.95
2023-02-05T04:07:48.488Z,65.96
2023-02-05T04:11:51.515Z,66.21
2023-02-05T04:15:54.756Z,66.15
2023-02-05T04:19:57.799Z,66.91
2023-02-05T04:24:02.151Z,67.06
2023-02-05T04:28:05.730Z,67.29
2023-02-05T04:32:09.195Z,67.52
2023-02-05T04:36:12.372Z,68.20
2023-02-05T04:40:17.466Z,68.14
2023-02-05T04:44:20.726Z,68.22
2023-02-05T04:48:24.232Z,68.10
2023-02-05T04:52:27.221Z,67.94
2023-02-05T04:56:32.178Z,67.76
2023-02-05T05:00:36.590Z,67.85
2023-02-05T05:04:49.367Z,68.10
2023-02-05T05:08:52.339Z,67.97
2023-02-05T05:12:57.308Z,68.00
2023-02-05T05:17:00.285Z,67.72
2023-02-05T05:21:05.942Z,67.60
2023-02-05T05:25:09.127Z,67.73
2023-02-05T05:29:14.792Z,68.21
2023-02-05T05:33:18.211Z,68.00
2023-02-05T05:37:21.388Z,68.14
2023-02-05T05:41:43.123Z,68.68
2023-02-05T05:45:48.561Z,68.35
2023-02-05T05:49:51.545Z,68.77
2023-02-05T05:53:55.357Z,69.06
2023-02-05T05:57:58.278Z,69.02
2023-02-05T06:02:04.324Z,69.06
2023-02-05T06:06:09.393Z,68.99
2023-02-05T06:10:12.716Z,68.85
2023-02-05T06:14:15.748Z,69.35
2023-02-05T06:18:22.772Z,69.73
2023-02-05T06:22:26.898Z,69.60
2023-02-05T06:26:30.498Z,69.43
2023-02-05T06:30:33.994Z,69.32
2023-02-05T06:34:38.868Z,69.89
2023-02-05T06:38:41.969Z,69.97
2023-02-05T06:42:45.239Z,70.33
2023-02-05T06:46:48.181Z,69.64
2023-02-05T06:50:52.656Z,69.66
2023-02-05T06:54:58.218Z,69.81
2023-02-05T06:59:01.385Z,69.34
2023-02-05T07:03:04.783Z,70.02
2023-02-05T07:07:09.818Z,70.21
2023-02-05T07:11:13.071Z,70.74
2023-02-05T07:15:16.115Z,69.50
2023-02-05T07:19:19.324Z,68.50
2023-02-05T07:23:23.828Z,67.48
2023-02-05T07:27:26.807Z,66.61
2023-02-05T07:31:30.190Z,65.57
2023-02-05T07:35:35.575Z,64.59
2023-02-05T07:39:40.778Z,64.34
2023-02-05T07:43:43.986Z,64.41
2023-02-05T07:47:50.089Z,63.87
2023-02-05T07:51:53.449Z,63.14
2023-02-05T07:55:58.673Z,62.08
2023-02-05T08:00:01.900Z,60.61
2023-02-05T08:04:05.165Z,60.30
2023-02-05T08:08:08.884Z,61.57
2023-02-05T08:12:13.880Z,60.63
2023-02-05T08:16:17.541Z,59.34
2023-02-05T08:20:21.399Z,59.99
2023-02-05T08:24:24.636Z,59.64
2023-02-05T08:28:30.282Z,57.54
2023-02-05T08:32:33.468Z,57.21
2023-02-05T08:36:36.605Z,56.84
2023-02-05T08:40:41.459Z,56.43
2023-02-05T08:44:48.756Z,55.59
2023-02-05T08:48:52.116Z,53.91
2023-02-05T08:52:55.262Z,53.83
2023-02-05T08:56:58.220Z,54.42
2023-02-05T09:01:04.978Z,51.76
2023-02-05T09:05:11.558Z,51.57
2023-02-05T09:09:15.681Z,51.49
2023-02-05T09:13:19.071Z,48.55
2023-02-05T09:17:23.797Z,49.03
2023-02-05T09:21:27.933Z,49.94
2023-02-05T09:25:34.361Z,47.82
2023-02-05T09:29:37.690Z,49.33
2023-02-05T09:33:44.798Z,48.34
2023-02-05T09:37:48.993Z,47.29
2023-02-05T09:41:57.958Z,48.78
2023-02-05T09:46:05.929Z,48.15
2023-02-05T09:50:17.188Z,50.62
2023-02-05T09:54:29.021Z,48.32
2023-02-05T09:58:36.266Z,45.56
2023-02-05T10:02:50.203Z,46.69
2023-02-05T10:07:32.933Z,49.69
2023-02-05T10:11:42.276Z,45.51
2023-02-05T10:16:04.489Z,43.47
2023-02-05T10:20:22.388Z,45.35
2023-02-05T10:24:52.010Z,46.86
2023-02-05T10:29:15.505Z,47.29
2023-02-05T10:33:20.410Z,45.04
2023-02-05T10:37:31.735Z,44.17
2023-02-05T10:41:40.000Z,45.72
2023-02-05T10:45:44.451Z,44.72
2023-02-05T10:49:55.227Z,45.72
2023-02-05T10:53:59.658Z,43.43
2023-02-05T10:58:23.979Z,44.11
2023-02-05T11:02:33.960Z,44.96
2023-02-05T11:06:40.905Z,44.73
2023-02-05T11:10:44.297Z,43.32
2023-02-05T11:14:57.650Z,46.68
2023-02-05T11:19:02.868Z,43.43
2023-02-05T11:23:20.846Z,46.65
2023-02-05T11:27:32.816Z,44.66
2023-02-05T11:31:38.045Z,42.37
2023-02-05T11:35:41.303Z,42.20
2023-02-05T11:39:47.428Z,40.82
2023-02-05T11:43:53.692Z,41.04
2023-02-05T11:47:59.121Z,41.85
2023-02-05T11:52:10.296Z,43.74
2023-02-05T11:56:24.257Z,44.02
2023-02-05T12:00:29.403Z,38.56
2023-02-05T12:04:41.589Z,44.85
2023-02-05T12:08:49.600Z,41.02
2023-02-05T12:13:03.848Z,43.75
2023-02-05T12:17:25.398Z,43.13
2023-02-05T12:21:44.646Z,43.74
2023-02-05T12:26:00.067Z,41.67
2023-02-05T12:30:22.477Z,44.33
2023-02-05T12:34:33.546Z,43.72
2023-02-05T12:38:53.432Z,44.62
2023-02-05T12:43:03.188Z,40.85
2023-02-05T12:47:19.105Z,44.28
2023-02-05T12:51:38.758Z,45.04
2023-02-05T12:55:56.059Z,44.49
2023-02-05T13:00:04.692Z,42.24
2023-02-05T13:04:15.204Z,42.81
2023-02-05T13:08:27.166Z,43.98
2023-02-05T13:12:37.258Z,44.79
2023-02-05T13:16:46.022Z,44.34
2023-02-05T13:21:11.628Z,44.54
2023-02-05T13:25:40.961Z,45.78
2023-02-05T13:29:52.330Z,46.92
2023-02-05T13:33:57.906Z,45.60
2023-02-05T13:38:24.145Z,49.22
2023-02-05T13:42:50.164Z,48.59
2023-02-05T13:47:20.205Z,48.82
2023-02-05T13:51:43.499Z,48.95
2023-02-05T13:56:18.931Z,47.59
2023-02-05T14:00:22.906Z,45.10
2023-02-05T14:04:32.906Z,44.58
2023-02-05T14:08:39.805Z,44.81
2023-02-05T14:12:43.006Z,44.24
2023-02-05T14:16:49.699Z,45.30
2023-02-05T14:20:55.240Z,44.43
2023-02-05T14:24:58.562Z,44.78
2023-02-05T14:29:01.698Z,45.63
2023-02-05T14:33:07.221Z,45.76
2023-02-05T14:37:27.361Z,48.68
2023-02-05T14:41:33.996Z,44.80
2023-02-05T14:45:44.951Z,47.89
2023-02-05T14:49:49.851Z,45.87
2023-02-05T14:54:00.219Z,46.84
2023-02-05T14:58:07.217Z,47.27
2023-02-05T15:02:43.678Z,48.25
2023-02-05T15:06:47.765Z,46.08
2023-02-05T15:10:58.149Z,48.43
2023-02-05T15:15:01.775Z,45.41
2023-02-05T15:19:07.898Z,45.78
2023-02-05T15:23:30.072Z,46.81
2023-02-05T15:27:43.652Z,46.66
2023-02-05T15:31:49.619Z,45.27
2023-02-05T15:35:52.925Z,45.57
2023-02-05T15:39:58.349Z,46.23
2023-02-05T15:44:04.660Z,46.73
2023-02-05T15:48:18.616Z,47.41
2023-02-05T15:52:23.760Z,47.44
2023-02-05T15:56:32.409Z,47.71
2023-02-05T16:00:41.812Z,48.95
2023-02-05T16:04:45.137Z,49.48
2023-02-05T16:08:49.274Z,50.37
2023-02-05T16:13:00.246Z,52.27
2023-02-05T16:17:09.651Z,52.91
2023-02-05T16:21:21.579Z,53.65
2023-02-05T16:25:42.039Z,54.78
2023-02-05T16:29:51.055Z,53.76
2023-02-05T16:34:00.122Z,53.93
2023-02-05T16:38:10.121Z,54.17
2023-02-05T16:42:30.135Z,54.73
2023-02-05T16:46:34.326Z,54.59
2023-02-05T16:50:44.826Z,54.88
2023-02-05T16:54:47.942Z,55.59
2023-02-05T16:58:53.592Z,55.60
2023-02-05T17:02:59.412Z,56.80
2023-02-05T17:07:07.318Z,56.67
2023-02-05T17:11:34.409Z,58.77
2023-02-05T17:15:40.421Z,59.50
2023-02-05T17:19:44.501Z,60.17
2023-02-05T17:23:50.928Z,60.43
2023-02-05T17:27:54.519Z,60.24
2023-02-05T17:31:58.473Z,60.02
2023-02-05T17:36:01.708Z,59.82
2023-02-05T17:40:07.769Z,62.80
2023-02-05T17:44:12.791Z,63.41
2023-02-05T17:48:17.628Z,63.49
2023-02-05T17:52:20.844Z,63.04
2023-02-05T17:56:26.301Z,61.64
2023-02-05T18:00:32.177Z,61.38
2023-02-05T18:04:35.312Z,61.81
2023-02-05T18:08:38.468Z,61.99
2023-02-05T18:12:43.126Z,62.41
2023-02-05T18:16:46.784Z,61.57
2023-02-05T18:20:49.643Z,61.65
2023-02-05T18:24:52.836Z,61.00
2023-02-05T18:28:57.114Z,61.29
2023-02-05T18:33:00.425Z,61.97
2023-02-05T18:37:03.519Z,62.72
2023-02-05T18:41:09.394Z,63.72
2023-02-05T18:45:14.385Z,63.17
2023-02-05T18:49:17.665Z,64.13
2023-02-05T18:53:20.806Z,64.18
2023-02-05T18:57:23.886Z,63.97
2023-02-05T19:01:29.515Z,63.09
2023-02-05T19:05:32.975Z,62.69
2023-02-05T19:09:36.170Z,62.37
2023-02-05T19:13:39.894Z,62.69
2023-02-05T19:17:44.788Z,63.09
2023-02-05T19:21:49.097Z,63.43
2023-02-05T19:25:52.400Z,63.41
2023-02-05T19:29:55.603Z,63.31
2023-02-05T19:34:00.995Z,63.65
2023-02-05T19:38:04.165Z,63.56
2023-02-05T19:42:09.485Z,63.00
2023-02-05T19:46:12.873Z,63.34
2023-02-05T19:50:19.173Z,63.56
2023-02-05T19:54:23.583Z,63.12
2023-02-05T19:58:26.570Z,63.53
2023-02-05T20:02:32.108Z,63.57
2023-02-05T20:06:37.352Z,63.56
2023-02-05T20:10:40.637Z,63.86
2023-02-05T20:14:43.597Z,64.45
2023-02-05T20:18:48.674Z,64.21
2023-02-05T20:22:54.590Z,64.79
2023-02-05T20:26:58.869Z,65.45
2023-02-05T20:31:19.890Z,65.34
2023-02-05T20:35:23.184Z,65.53
2023-02-05T20:39:30.488Z,65.67
2023-02-05T20:43:33.581Z,65.59
2023-02-05T20:47:39.630Z,64.74
2023-02-05T20:51:43.588Z,64.69
2023-02-05T20:55:51.648Z,64.07
2023-02-05T20:59:55.710Z,64.14
2023-02-05T21:04:00.718Z,63.54
2023-02-05T21:08:04.290Z,63.40
2023-02-05T21:12:09.307Z,63.68
2023-02-05T21:16:14.679Z,63.10
2023-02-05T21:20:18.836Z,62.73
2023-02-05T21:24:21.912Z,62.65
2023-02-05T21:28:26.533Z,62.51
2023-02-05T21:32:30.712Z,62.69
2023-02-05T21:36:34.808Z,62.82
2023-02-05T21:40:39.566Z,62.24
2023-02-05T21:44:49.476Z,61.97
2023-02-05T21:48:54.110Z,62.69
2023-02-05T21:52:57.465Z,62.41
2023-02-05T21:57:00.626Z,62.13
2023-02-05T22:01:16.913Z,62.78
2023-02-05T22:05:19.954Z,62.97
2023-02-05T22:09:23.640Z,62.75
2023-02-05T22:13:26.851Z,62.98
2023-02-05T22:17:31.503Z,62.93
2023-02-05T22:21:36.862Z,63.15
2023-02-05T22:25:40.225Z,63.49
2023-02-05T22:35:07.998Z,63.81
2023-02-05T22:39:11.983Z,63.56
2023-02-05T22:43:14.954Z,63.63
2023-02-05T22:47:18.164Z,64.03
2023-02-05T22:51:24.701Z,64.38
2023-02-05T22:55:27.844Z,64.57
2023-02-05T22:59:31.114Z,64.22
2023-02-05T23:03:34.214Z,64.76
2023-02-05T23:07:39.102Z,64.48
2023-02-05T23:11:42.753Z,65.04
2023-02-05T23:15:46.015Z,65.57
2023-02-05T23:19:52.341Z,65.35
2023-02-05T23:23:57.531Z,65.99
2023-02-05T23:28:00.832Z,66.12
2023-02-05T23:32:05.153Z,66.02
2023-02-05T23:36:09.559Z,66.02
2023-02-05T23:40:14.627Z,65.82
2023-02-05T23:44:19.672Z,66.00
2023-02-05T23:48:22.666Z,65.99
2023-02-05T23:52:26.176Z,66.04
2023-02-05T23:56:30.716Z,65.37
